sensor_id;sensor_type;location;lat;lon;timestamp;P1;durP1;ratioP1;P2;durP2;ratioP2
30723;SDS011;17473;52.286;20.930;2023-05-07T00:00:02;5.20;;;4.13;;
30723;SDS011;17473;52.286;20.930;2023-05-07T00:02:35;7.70;;;4.77;;
30723;SDS011;17473;52.286;20.930;2023-05-07T00:05:02;8.90;;;3.97;;
30723;SDS011;17473;52.286;20.930;2023-05-07T00:07:30;5.80;;;3.70;;
30723;SDS011;17473;52.286;20.930;2023-05-07T00:09:57;5.97;;;3.67;;
30723;SDS011;17473;52.286;20.930;2023-05-07T00:12:24;6.80;;;4.07;;
30723;SDS011;17473;52.286;20.930;2023-05-07T00:14:52;6.13;;;3.33;;
30723;SDS011;17473;52.286;20.930;2023-05-07T00:17:19;7.13;;;3.73;;
30723;SDS011;17473;52.286;20.930;2023-05-07T00:19:46;7.07;;;3.80;;
30723;SDS011;17473;52.286;20.930;2023-05-07T00:22:14;6.43;;;3.60;;
30723;SDS011;17473;52.286;20.930;2023-05-07T00:24:41;6.40;;;3.13;;
30723;SDS011;17473;52.286;20.930;2023-05-07T00:27:08;7.53;;;3.53;;
30723;SDS011;17473;52.286;20.930;2023-05-07T00:29:35;5.17;;;3.70;;
30723;SDS011;17473;52.286;20.930;2023-05-07T00:32:03;6.00;;;3.60;;
30723;SDS011;17473;52.286;20.930;2023-05-07T00:34:30;4.87;;;3.20;;
30723;SDS011;17473;52.286;20.930;2023-05-07T00:36:57;6.93;;;3.57;;
30723;SDS011;17473;52.286;20.930;2023-05-07T00:39:24;8.53;;;3.63;;
30723;SDS011;17473;52.286;20.930;2023-05-07T00:41:51;7.13;;;3.77;;
30723;SDS011;17473;52.286;20.930;2023-05-07T00:44:18;6.57;;;4.03;;
30723;SDS011;17473;52.286;20.930;2023-05-07T00:46:45;6.03;;;3.80;;
30723;SDS011;17473;52.286;20.930;2023-05-07T00:49:16;3.20;;;2.90;;
30723;SDS011;17473;52.286;20.930;2023-05-07T00:51:44;5.47;;;3.40;;
30723;SDS011;17473;52.286;20.930;2023-05-07T00:54:12;4.87;;;3.70;;
30723;SDS011;17473;52.286;20.930;2023-05-07T00:56:40;4.50;;;3.40;;
30723;SDS011;17473;52.286;20.930;2023-05-07T00:59:07;4.57;;;3.40;;
30723;SDS011;17473;52.286;20.930;2023-05-07T01:01:35;9.57;;;3.73;;
30723;SDS011;17473;52.286;20.930;2023-05-07T01:04:03;7.83;;;3.73;;
30723;SDS011;17473;52.286;20.930;2023-05-07T01:06:31;8.93;;;3.27;;
30723;SDS011;17473;52.286;20.930;2023-05-07T01:08:59;5.33;;;3.40;;
30723;SDS011;17473;52.286;20.930;2023-05-07T01:11:28;6.60;;;3.60;;
30723;SDS011;17473;52.286;20.930;2023-05-07T01:13:55;5.07;;;3.33;;
30723;SDS011;17473;52.286;20.930;2023-05-07T01:16:24;6.53;;;3.00;;
30723;SDS011;17473;52.286;20.930;2023-05-07T01:18:53;9.57;;;4.30;;
30723;SDS011;17473;52.286;20.930;2023-05-07T01:21:20;5.20;;;3.07;;
30723;SDS011;17473;52.286;20.930;2023-05-07T01:23:53;5.23;;;3.50;;
30723;SDS011;17473;52.286;20.930;2023-05-07T01:26:22;4.33;;;3.13;;
30723;SDS011;17473;52.286;20.930;2023-05-07T01:28:49;6.10;;;3.17;;
30723;SDS011;17473;52.286;20.930;2023-05-07T01:31:17;4.77;;;3.47;;
30723;SDS011;17473;52.286;20.930;2023-05-07T01:33:44;6.73;;;3.40;;
30723;SDS011;17473;52.286;20.930;2023-05-07T01:36:14;3.63;;;3.00;;
30723;SDS011;17473;52.286;20.930;2023-05-07T01:38:43;5.60;;;3.30;;
30723;SDS011;17473;52.286;20.930;2023-05-07T01:41:12;7.33;;;3.53;;
30723;SDS011;17473;52.286;20.930;2023-05-07T01:43:40;4.53;;;3.03;;
30723;SDS011;17473;52.286;20.930;2023-05-07T01:46:08;7.37;;;3.40;;
30723;SDS011;17473;52.286;20.930;2023-05-07T01:48:36;5.10;;;3.23;;
30723;SDS011;17473;52.286;20.930;2023-05-07T01:51:04;7.20;;;3.47;;
30723;SDS011;17473;52.286;20.930;2023-05-07T01:53:36;6.27;;;2.90;;
30723;SDS011;17473;52.286;20.930;2023-05-07T01:56:04;4.83;;;3.27;;
30723;SDS011;17473;52.286;20.930;2023-05-07T01:58:32;3.47;;;2.73;;
30723;SDS011;17473;52.286;20.930;2023-05-07T02:01:00;5.73;;;3.03;;
30723;SDS011;17473;52.286;20.930;2023-05-07T02:03:27;4.10;;;2.90;;
30723;SDS011;17473;52.286;20.930;2023-05-07T02:05:54;3.70;;;2.60;;
30723;SDS011;17473;52.286;20.930;2023-05-07T02:08:21;4.00;;;2.73;;
30723;SDS011;17473;52.286;20.930;2023-05-07T02:10:48;4.70;;;3.07;;
30723;SDS011;17473;52.286;20.930;2023-05-07T02:13:17;4.67;;;2.90;;
30723;SDS011;17473;52.286;20.930;2023-05-07T02:15:46;3.50;;;2.73;;
30723;SDS011;17473;52.286;20.930;2023-05-07T02:18:16;4.27;;;2.90;;
30723;SDS011;17473;52.286;20.930;2023-05-07T02:20:44;3.87;;;2.73;;
30723;SDS011;17473;52.286;20.930;2023-05-07T02:23:11;7.27;;;3.27;;
30723;SDS011;17473;52.286;20.930;2023-05-07T02:25:38;5.07;;;3.03;;
30723;SDS011;17473;52.286;20.930;2023-05-07T02:28:05;6.20;;;2.73;;
30723;SDS011;17473;52.286;20.930;2023-05-07T02:30:32;4.17;;;2.70;;
30723;SDS011;17473;52.286;20.930;2023-05-07T02:32:59;4.77;;;2.40;;
30723;SDS011;17473;52.286;20.930;2023-05-07T02:35:26;5.37;;;3.00;;
30723;SDS011;17473;52.286;20.930;2023-05-07T02:37:53;4.50;;;2.77;;
30723;SDS011;17473;52.286;20.930;2023-05-07T02:40:20;7.63;;;2.97;;
30723;SDS011;17473;52.286;20.930;2023-05-07T02:42:47;3.03;;;2.47;;
30723;SDS011;17473;52.286;20.930;2023-05-07T02:45:14;5.57;;;2.70;;
30723;SDS011;17473;52.286;20.930;2023-05-07T02:47:41;6.80;;;2.70;;
30723;SDS011;17473;52.286;20.930;2023-05-07T02:50:09;3.43;;;2.27;;
30723;SDS011;17473;52.286;20.930;2023-05-07T02:52:37;3.23;;;2.70;;
30723;SDS011;17473;52.286;20.930;2023-05-07T02:55:04;3.70;;;2.60;;
30723;SDS011;17473;52.286;20.930;2023-05-07T02:57:32;4.57;;;2.60;;
30723;SDS011;17473;52.286;20.930;2023-05-07T02:59:59;5.97;;;3.03;;
30723;SDS011;17473;52.286;20.930;2023-05-07T03:02:40;3.80;;;2.90;;
30723;SDS011;17473;52.286;20.930;2023-05-07T03:05:07;4.33;;;3.00;;
30723;SDS011;17473;52.286;20.930;2023-05-07T03:07:35;4.00;;;2.50;;
30723;SDS011;17473;52.286;20.930;2023-05-07T03:10:03;6.97;;;2.90;;
30723;SDS011;17473;52.286;20.930;2023-05-07T03:12:31;5.40;;;2.70;;
30723;SDS011;17473;52.286;20.930;2023-05-07T03:14:58;3.90;;;2.50;;
30723;SDS011;17473;52.286;20.930;2023-05-07T03:17:25;5.80;;;3.40;;
30723;SDS011;17473;52.286;20.930;2023-05-07T03:19:52;3.57;;;2.57;;
30723;SDS011;17473;52.286;20.930;2023-05-07T03:22:19;3.20;;;2.53;;
30723;SDS011;17473;52.286;20.930;2023-05-07T03:24:47;5.27;;;2.70;;
30723;SDS011;17473;52.286;20.930;2023-05-07T03:27:14;3.20;;;2.47;;
30723;SDS011;17473;52.286;20.930;2023-05-07T03:29:41;2.90;;;2.23;;
30723;SDS011;17473;52.286;20.930;2023-05-07T03:32:08;3.53;;;2.43;;
30723;SDS011;17473;52.286;20.930;2023-05-07T03:34:35;2.50;;;2.20;;
30723;SDS011;17473;52.286;20.930;2023-05-07T03:37:02;4.03;;;2.83;;
30723;SDS011;17473;52.286;20.930;2023-05-07T03:39:29;2.53;;;2.10;;
30723;SDS011;17473;52.286;20.930;2023-05-07T03:41:57;2.63;;;2.30;;
30723;SDS011;17473;52.286;20.930;2023-05-07T03:44:24;4.53;;;2.50;;
30723;SDS011;17473;52.286;20.930;2023-05-07T03:46:52;3.47;;;2.20;;
30723;SDS011;17473;52.286;20.930;2023-05-07T03:49:19;3.53;;;2.30;;
30723;SDS011;17473;52.286;20.930;2023-05-07T03:51:46;4.70;;;2.87;;
30723;SDS011;17473;52.286;20.930;2023-05-07T03:54:13;2.67;;;2.40;;
30723;SDS011;17473;52.286;20.930;2023-05-07T03:56:40;3.83;;;2.57;;
30723;SDS011;17473;52.286;20.930;2023-05-07T03:59:07;4.13;;;2.67;;
30723;SDS011;17473;52.286;20.930;2023-05-07T04:01:34;6.67;;;3.30;;
30723;SDS011;17473;52.286;20.930;2023-05-07T04:04:01;2.67;;;2.30;;
30723;SDS011;17473;52.286;20.930;2023-05-07T04:06:29;4.47;;;2.57;;
30723;SDS011;17473;52.286;20.930;2023-05-07T04:08:57;5.93;;;2.40;;
30723;SDS011;17473;52.286;20.930;2023-05-07T04:11:24;4.33;;;2.23;;
30723;SDS011;17473;52.286;20.930;2023-05-07T04:13:51;3.47;;;2.30;;
30723;SDS011;17473;52.286;20.930;2023-05-07T04:16:19;3.97;;;1.93;;
30723;SDS011;17473;52.286;20.930;2023-05-07T04:18:46;3.70;;;2.10;;
30723;SDS011;17473;52.286;20.930;2023-05-07T04:21:13;3.50;;;2.20;;
30723;SDS011;17473;52.286;20.930;2023-05-07T04:23:48;5.47;;;2.80;;
30723;SDS011;17473;52.286;20.930;2023-05-07T04:26:15;2.50;;;1.90;;
30723;SDS011;17473;52.286;20.930;2023-05-07T04:28:43;4.57;;;2.00;;
30723;SDS011;17473;52.286;20.930;2023-05-07T04:31:10;2.80;;;1.90;;
30723;SDS011;17473;52.286;20.930;2023-05-07T04:33:37;3.23;;;2.03;;
30723;SDS011;17473;52.286;20.930;2023-05-07T04:36:04;4.00;;;1.90;;
30723;SDS011;17473;52.286;20.930;2023-05-07T04:38:31;3.17;;;1.80;;
30723;SDS011;17473;52.286;20.930;2023-05-07T04:41:05;2.37;;;1.80;;
30723;SDS011;17473;52.286;20.930;2023-05-07T04:43:33;4.00;;;2.00;;
30723;SDS011;17473;52.286;20.930;2023-05-07T04:46:00;3.20;;;1.83;;
30723;SDS011;17473;52.286;20.930;2023-05-07T04:48:27;3.00;;;2.27;;
30723;SDS011;17473;52.286;20.930;2023-05-07T04:50:55;5.23;;;2.10;;
30723;SDS011;17473;52.286;20.930;2023-05-07T04:53:22;3.83;;;1.90;;
30723;SDS011;17473;52.286;20.930;2023-05-07T04:55:54;2.93;;;2.00;;
30723;SDS011;17473;52.286;20.930;2023-05-07T04:58:23;4.87;;;2.53;;
30723;SDS011;17473;52.286;20.930;2023-05-07T05:00:50;3.63;;;2.13;;
30723;SDS011;17473;52.286;20.930;2023-05-07T05:03:18;2.43;;;2.00;;
30723;SDS011;17473;52.286;20.930;2023-05-07T05:05:45;3.37;;;2.10;;
30723;SDS011;17473;52.286;20.930;2023-05-07T05:08:12;5.73;;;2.67;;
30723;SDS011;17473;52.286;20.930;2023-05-07T05:10:39;2.40;;;1.90;;
30723;SDS011;17473;52.286;20.930;2023-05-07T05:13:07;2.23;;;1.80;;
30723;SDS011;17473;52.286;20.930;2023-05-07T05:15:35;4.03;;;2.27;;
30723;SDS011;17473;52.286;20.930;2023-05-07T05:18:02;2.70;;;2.10;;
30723;SDS011;17473;52.286;20.930;2023-05-07T05:20:29;2.83;;;1.90;;
30723;SDS011;17473;52.286;20.930;2023-05-07T05:22:56;2.77;;;1.80;;
30723;SDS011;17473;52.286;20.930;2023-05-07T05:25:23;4.27;;;2.20;;
30723;SDS011;17473;52.286;20.930;2023-05-07T05:27:50;2.57;;;1.80;;
30723;SDS011;17473;52.286;20.930;2023-05-07T05:30:18;4.90;;;2.30;;
30723;SDS011;17473;52.286;20.930;2023-05-07T05:32:47;5.60;;;2.20;;
30723;SDS011;17473;52.286;20.930;2023-05-07T05:35:14;5.03;;;1.70;;
30723;SDS011;17473;52.286;20.930;2023-05-07T05:37:42;1.90;;;1.70;;
30723;SDS011;17473;52.286;20.930;2023-05-07T05:40:09;2.63;;;1.70;;
30723;SDS011;17473;52.286;20.930;2023-05-07T05:42:37;2.20;;;1.93;;
30723;SDS011;17473;52.286;20.930;2023-05-07T05:45:04;3.77;;;1.87;;
30723;SDS011;17473;52.286;20.930;2023-05-07T05:47:32;2.83;;;1.70;;
30723;SDS011;17473;52.286;20.930;2023-05-07T05:49:59;4.67;;;2.40;;
30723;SDS011;17473;52.286;20.930;2023-05-07T05:52:26;2.77;;;2.07;;
30723;SDS011;17473;52.286;20.930;2023-05-07T05:54:53;2.80;;;2.03;;
30723;SDS011;17473;52.286;20.930;2023-05-07T05:57:21;2.20;;;1.70;;
30723;SDS011;17473;52.286;20.930;2023-05-07T05:59:48;3.67;;;2.20;;
30723;SDS011;17473;52.286;20.930;2023-05-07T06:02:15;5.53;;;2.20;;
30723;SDS011;17473;52.286;20.930;2023-05-07T06:04:52;2.81;;;1.64;;
30723;SDS011;17473;52.286;20.930;2023-05-07T06:07:30;2.58;;;1.75;;
30723;SDS011;17473;52.286;20.930;2023-05-07T06:09:57;2.70;;;2.27;;
30723;SDS011;17473;52.286;20.930;2023-05-07T06:12:24;3.43;;;1.93;;
30723;SDS011;17473;52.286;20.930;2023-05-07T06:14:52;2.40;;;1.90;;
30723;SDS011;17473;52.286;20.930;2023-05-07T06:17:19;3.97;;;2.13;;
30723;SDS011;17473;52.286;20.930;2023-05-07T06:19:47;6.03;;;2.10;;
30723;SDS011;17473;52.286;20.930;2023-05-07T06:22:14;4.13;;;1.80;;
30723;SDS011;17473;52.286;20.930;2023-05-07T06:24:41;3.00;;;2.00;;
30723;SDS011;17473;52.286;20.930;2023-05-07T06:27:09;2.50;;;1.80;;
30723;SDS011;17473;52.286;20.930;2023-05-07T06:29:36;4.00;;;1.80;;
30723;SDS011;17473;52.286;20.930;2023-05-07T06:32:10;2.80;;;1.90;;
30723;SDS011;17473;52.286;20.930;2023-05-07T06:34:40;2.40;;;2.03;;
30723;SDS011;17473;52.286;20.930;2023-05-07T06:37:07;3.53;;;1.67;;
30723;SDS011;17473;52.286;20.930;2023-05-07T06:39:34;2.53;;;1.60;;
30723;SDS011;17473;52.286;20.930;2023-05-07T06:42:01;3.37;;;1.73;;
30723;SDS011;17473;52.286;20.930;2023-05-07T06:44:28;1.90;;;1.70;;
30723;SDS011;17473;52.286;20.930;2023-05-07T06:46:56;4.13;;;1.70;;
30723;SDS011;17473;52.286;20.930;2023-05-07T06:49:23;2.33;;;1.80;;
30723;SDS011;17473;52.286;20.930;2023-05-07T06:51:50;4.43;;;2.10;;
30723;SDS011;17473;52.286;20.930;2023-05-07T06:54:17;2.67;;;1.60;;
30723;SDS011;17473;52.286;20.930;2023-05-07T06:56:45;3.13;;;1.97;;
30723;SDS011;17473;52.286;20.930;2023-05-07T06:59:12;2.97;;;2.20;;
30723;SDS011;17473;52.286;20.930;2023-05-07T07:01:39;2.83;;;2.00;;
30723;SDS011;17473;52.286;20.930;2023-05-07T07:04:06;3.03;;;1.73;;
30723;SDS011;17473;52.286;20.930;2023-05-07T07:06:34;2.63;;;1.90;;
30723;SDS011;17473;52.286;20.930;2023-05-07T07:09:01;5.17;;;2.23;;
30723;SDS011;17473;52.286;20.930;2023-05-07T07:11:28;4.17;;;2.13;;
30723;SDS011;17473;52.286;20.930;2023-05-07T07:13:55;2.47;;;1.83;;
30723;SDS011;17473;52.286;20.930;2023-05-07T07:16:22;3.23;;;2.30;;
30723;SDS011;17473;52.286;20.930;2023-05-07T07:18:49;3.57;;;2.10;;
30723;SDS011;17473;52.286;20.930;2023-05-07T07:21:17;2.13;;;1.83;;
30723;SDS011;17473;52.286;20.930;2023-05-07T07:23:44;2.57;;;1.87;;
30723;SDS011;17473;52.286;20.930;2023-05-07T07:26:11;4.03;;;2.10;;
30723;SDS011;17473;52.286;20.930;2023-05-07T07:28:42;4.07;;;1.90;;
30723;SDS011;17473;52.286;20.930;2023-05-07T07:31:13;2.93;;;2.37;;
30723;SDS011;17473;52.286;20.930;2023-05-07T07:33:40;4.50;;;2.10;;
30723;SDS011;17473;52.286;20.930;2023-05-07T07:36:07;5.70;;;2.40;;
30723;SDS011;17473;52.286;20.930;2023-05-07T07:38:34;4.47;;;2.43;;
30723;SDS011;17473;52.286;20.930;2023-05-07T07:41:01;5.00;;;2.00;;
30723;SDS011;17473;52.286;20.930;2023-05-07T07:43:29;3.17;;;2.23;;
30723;SDS011;17473;52.286;20.930;2023-05-07T07:45:56;5.37;;;2.40;;
30723;SDS011;17473;52.286;20.930;2023-05-07T07:48:23;3.20;;;2.10;;
30723;SDS011;17473;52.286;20.930;2023-05-07T07:50:50;3.77;;;2.00;;
30723;SDS011;17473;52.286;20.930;2023-05-07T07:53:17;2.77;;;2.13;;
30723;SDS011;17473;52.286;20.930;2023-05-07T07:55:45;4.17;;;2.57;;
30723;SDS011;17473;52.286;20.930;2023-05-07T07:58:12;2.87;;;2.20;;
30723;SDS011;17473;52.286;20.930;2023-05-07T08:00:39;4.33;;;1.90;;
30723;SDS011;17473;52.286;20.930;2023-05-07T08:03:08;3.17;;;2.17;;
30723;SDS011;17473;52.286;20.930;2023-05-07T08:05:37;4.80;;;2.80;;
30723;SDS011;17473;52.286;20.930;2023-05-07T08:08:04;2.83;;;1.90;;
30723;SDS011;17473;52.286;20.930;2023-05-07T08:10:32;5.17;;;2.33;;
30723;SDS011;17473;52.286;20.930;2023-05-07T08:13:01;5.97;;;1.80;;
30723;SDS011;17473;52.286;20.930;2023-05-07T08:15:30;5.30;;;1.97;;
30723;SDS011;17473;52.286;20.930;2023-05-07T08:17:57;3.47;;;2.13;;
30723;SDS011;17473;52.286;20.930;2023-05-07T08:20:26;5.67;;;2.00;;
30723;SDS011;17473;52.286;20.930;2023-05-07T08:22:54;2.40;;;2.00;;
30723;SDS011;17473;52.286;20.930;2023-05-07T08:25:22;2.93;;;2.17;;
30723;SDS011;17473;52.286;20.930;2023-05-07T08:27:49;2.10;;;1.90;;
30723;SDS011;17473;52.286;20.930;2023-05-07T08:30:16;4.93;;;2.33;;
30723;SDS011;17473;52.286;20.930;2023-05-07T08:32:43;5.27;;;1.90;;
30723;SDS011;17473;52.286;20.930;2023-05-07T08:35:10;4.23;;;2.10;;
30723;SDS011;17473;52.286;20.930;2023-05-07T08:37:37;5.77;;;2.00;;
30723;SDS011;17473;52.286;20.930;2023-05-07T08:40:05;2.43;;;2.17;;
30723;SDS011;17473;52.286;20.930;2023-05-07T08:42:37;3.47;;;2.03;;
30723;SDS011;17473;52.286;20.930;2023-05-07T08:45:09;6.23;;;1.97;;
30723;SDS011;17473;52.286;20.930;2023-05-07T08:47:40;4.37;;;1.80;;
30723;SDS011;17473;52.286;20.930;2023-05-07T08:50:12;3.53;;;2.20;;
30723;SDS011;17473;52.286;20.930;2023-05-07T08:52:40;3.83;;;1.97;;
30723;SDS011;17473;52.286;20.930;2023-05-07T08:55:07;2.80;;;1.80;;
30723;SDS011;17473;52.286;20.930;2023-05-07T08:57:36;4.93;;;2.30;;
30723;SDS011;17473;52.286;20.930;2023-05-07T09:00:06;2.77;;;1.37;;
30723;SDS011;17473;52.286;20.930;2023-05-07T09:02:37;2.13;;;1.50;;
30723;SDS011;17473;52.286;20.930;2023-05-07T09:05:04;4.27;;;1.77;;
30723;SDS011;17473;52.286;20.930;2023-05-07T09:07:32;4.20;;;1.90;;
30723;SDS011;17473;52.286;20.930;2023-05-07T09:10:03;3.13;;;1.70;;
30723;SDS011;17473;52.286;20.930;2023-05-07T09:12:31;2.30;;;1.90;;
30723;SDS011;17473;52.286;20.930;2023-05-07T09:14:58;3.13;;;2.30;;
30723;SDS011;17473;52.286;20.930;2023-05-07T09:17:26;5.00;;;2.27;;
30723;SDS011;17473;52.286;20.930;2023-05-07T09:19:54;2.27;;;1.60;;
30723;SDS011;17473;52.286;20.930;2023-05-07T09:22:21;3.23;;;1.80;;
30723;SDS011;17473;52.286;20.930;2023-05-07T09:24:49;2.40;;;1.63;;
30723;SDS011;17473;52.286;20.930;2023-05-07T09:27:17;3.60;;;2.33;;
30723;SDS011;17473;52.286;20.930;2023-05-07T09:29:44;6.73;;;2.17;;
30723;SDS011;17473;52.286;20.930;2023-05-07T09:32:11;4.70;;;1.70;;
30723;SDS011;17473;52.286;20.930;2023-05-07T09:34:39;3.80;;;1.63;;
30723;SDS011;17473;52.286;20.930;2023-05-07T09:37:07;3.47;;;1.97;;
30723;SDS011;17473;52.286;20.930;2023-05-07T09:39:47;4.17;;;1.90;;
30723;SDS011;17473;52.286;20.930;2023-05-07T09:42:15;3.33;;;2.00;;
30723;SDS011;17473;52.286;20.930;2023-05-07T09:44:48;2.70;;;1.67;;
30723;SDS011;17473;52.286;20.930;2023-05-07T09:47:19;3.23;;;1.83;;
30723;SDS011;17473;52.286;20.930;2023-05-07T09:49:49;5.13;;;1.90;;
30723;SDS011;17473;52.286;20.930;2023-05-07T09:52:21;4.77;;;1.87;;
30723;SDS011;17473;52.286;20.930;2023-05-07T09:54:50;3.07;;;2.10;;
30723;SDS011;17473;52.286;20.930;2023-05-07T09:57:17;2.30;;;1.80;;
30723;SDS011;17473;52.286;20.930;2023-05-07T09:59:46;4.23;;;2.17;;
30723;SDS011;17473;52.286;20.930;2023-05-07T10:02:15;3.83;;;1.50;;
30723;SDS011;17473;52.286;20.930;2023-05-07T10:04:47;2.17;;;1.97;;
30723;SDS011;17473;52.286;20.930;2023-05-07T10:07:15;1.53;;;1.30;;
30723;SDS011;17473;52.286;20.930;2023-05-07T10:09:43;1.73;;;1.30;;
30723;SDS011;17473;52.286;20.930;2023-05-07T10:12:14;2.97;;;1.60;;
30723;SDS011;17473;52.286;20.930;2023-05-07T10:14:42;3.03;;;1.80;;
30723;SDS011;17473;52.286;20.930;2023-05-07T10:17:11;2.80;;;1.50;;
30723;SDS011;17473;52.286;20.930;2023-05-07T10:19:40;1.53;;;1.30;;
30723;SDS011;17473;52.286;20.930;2023-05-07T10:22:07;1.63;;;1.30;;
30723;SDS011;17473;52.286;20.930;2023-05-07T10:24:35;2.57;;;1.33;;
30723;SDS011;17473;52.286;20.930;2023-05-07T10:27:04;2.07;;;1.27;;
30723;SDS011;17473;52.286;20.930;2023-05-07T10:29:39;1.60;;;1.10;;
30723;SDS011;17473;52.286;20.930;2023-05-07T10:32:45;2.87;;;1.70;;
30723;SDS011;17473;52.286;20.930;2023-05-07T10:35:24;1.83;;;1.40;;
30723;SDS011;17473;52.286;20.930;2023-05-07T10:37:58;6.93;;;1.30;;
30723;SDS011;17473;52.286;20.930;2023-05-07T10:40:25;3.13;;;1.50;;
30723;SDS011;17473;52.286;20.930;2023-05-07T10:42:56;2.90;;;1.90;;
30723;SDS011;17473;52.286;20.930;2023-05-07T10:45:28;6.87;;;2.17;;
30723;SDS011;17473;52.286;20.930;2023-05-07T10:51:17;2.37;;;1.67;;
30723;SDS011;17473;52.286;20.930;2023-05-07T10:53:47;1.83;;;1.50;;
30723;SDS011;17473;52.286;20.930;2023-05-07T10:58:43;2.03;;;1.50;;
30723;SDS011;17473;52.286;20.930;2023-05-07T11:01:11;1.97;;;1.30;;
30723;SDS011;17473;52.286;20.930;2023-05-07T11:15:08;3.77;;;1.83;;
30723;SDS011;17473;52.286;20.930;2023-05-07T11:17:59;1.50;;;1.30;;
30723;SDS011;17473;52.286;20.930;2023-05-07T11:26:07;5.20;;;1.23;;
30723;SDS011;17473;52.286;20.930;2023-05-07T11:28:36;1.77;;;1.37;;
30723;SDS011;17473;52.286;20.930;2023-05-07T11:31:09;1.70;;;1.00;;
30723;SDS011;17473;52.286;20.930;2023-05-07T11:33:37;2.27;;;1.50;;
30723;SDS011;17473;52.286;20.930;2023-05-07T11:36:05;1.70;;;1.40;;
30723;SDS011;17473;52.286;20.930;2023-05-07T11:38:35;1.43;;;1.00;;
30723;SDS011;17473;52.286;20.930;2023-05-07T11:41:03;1.67;;;1.10;;
30723;SDS011;17473;52.286;20.930;2023-05-07T11:43:31;2.90;;;1.60;;
30723;SDS011;17473;52.286;20.930;2023-05-07T11:46:06;3.33;;;1.27;;
30723;SDS011;17473;52.286;20.930;2023-05-07T11:48:37;1.50;;;1.23;;
30723;SDS011;17473;52.286;20.930;2023-05-07T11:51:05;3.47;;;1.53;;
30723;SDS011;17473;52.286;20.930;2023-05-07T11:53:39;2.00;;;1.50;;
30723;SDS011;17473;52.286;20.930;2023-05-07T11:56:10;1.63;;;1.43;;
30723;SDS011;17473;52.286;20.930;2023-05-07T11:58:42;1.30;;;1.20;;
30723;SDS011;17473;52.286;20.930;2023-05-07T12:01:12;2.13;;;1.30;;
30723;SDS011;17473;52.286;20.930;2023-05-07T12:03:40;3.57;;;1.43;;
30723;SDS011;17473;52.286;20.930;2023-05-07T12:06:10;2.03;;;1.17;;
30723;SDS011;17473;52.286;20.930;2023-05-07T12:08:39;2.23;;;1.37;;
30723;SDS011;17473;52.286;20.930;2023-05-07T12:11:09;6.20;;;1.77;;
30723;SDS011;17473;52.286;20.930;2023-05-07T12:13:48;1.63;;;1.30;;
30723;SDS011;17473;52.286;20.930;2023-05-07T12:16:15;2.23;;;1.40;;
30723;SDS011;17473;52.286;20.930;2023-05-07T12:18:43;4.10;;;1.70;;
30723;SDS011;17473;52.286;20.930;2023-05-07T12:21:11;3.93;;;1.30;;
30723;SDS011;17473;52.286;20.930;2023-05-07T12:23:39;3.13;;;1.50;;
30723;SDS011;17473;52.286;20.930;2023-05-07T12:26:07;1.40;;;1.30;;
30723;SDS011;17473;52.286;20.930;2023-05-07T12:28:38;1.80;;;1.27;;
30723;SDS011;17473;52.286;20.930;2023-05-07T12:31:05;3.10;;;1.60;;
30723;SDS011;17473;52.286;20.930;2023-05-07T12:33:34;2.80;;;1.37;;
30723;SDS011;17473;52.286;20.930;2023-05-07T12:36:03;1.57;;;1.17;;
30723;SDS011;17473;52.286;20.930;2023-05-07T12:38:39;2.43;;;1.47;;
30723;SDS011;17473;52.286;20.930;2023-05-07T12:41:10;1.47;;;1.10;;
30723;SDS011;17473;52.286;20.930;2023-05-07T12:43:38;2.33;;;1.20;;
30723;SDS011;17473;52.286;20.930;2023-05-07T12:46:06;1.53;;;1.27;;
30723;SDS011;17473;52.286;20.930;2023-05-07T12:48:37;1.17;;;1.07;;
30723;SDS011;17473;52.286;20.930;2023-05-07T12:51:09;1.27;;;1.07;;
30723;SDS011;17473;52.286;20.930;2023-05-07T12:53:41;1.33;;;1.23;;
30723;SDS011;17473;52.286;20.930;2023-05-07T12:56:09;1.70;;;1.20;;
30723;SDS011;17473;52.286;20.930;2023-05-07T12:58:36;2.10;;;1.23;;
30723;SDS011;17473;52.286;20.930;2023-05-07T13:01:04;1.93;;;1.40;;
30723;SDS011;17473;52.286;20.930;2023-05-07T13:03:34;1.80;;;1.30;;
30723;SDS011;17473;52.286;20.930;2023-05-07T13:06:05;3.37;;;1.27;;
30723;SDS011;17473;52.286;20.930;2023-05-07T13:08:37;1.80;;;1.42;;
30723;SDS011;17473;52.286;20.930;2023-05-07T13:11:07;2.93;;;1.63;;
30723;SDS011;17473;52.286;20.930;2023-05-07T13:13:37;2.60;;;1.40;;
30723;SDS011;17473;52.286;20.930;2023-05-07T13:16:07;1.40;;;1.17;;
30723;SDS011;17473;52.286;20.930;2023-05-07T13:18:38;2.63;;;1.70;;
30723;SDS011;17473;52.286;20.930;2023-05-07T13:21:07;2.83;;;1.40;;
30723;SDS011;17473;52.286;20.930;2023-05-07T13:23:35;2.60;;;1.50;;
30723;SDS011;17473;52.286;20.930;2023-05-07T13:26:04;1.45;;;1.20;;
30723;SDS011;17473;52.286;20.930;2023-05-07T13:28:51;2.47;;;2.08;;
30723;SDS011;17473;52.286;20.930;2023-05-07T13:31:22;3.43;;;1.30;;
30723;SDS011;17473;52.286;20.930;2023-05-07T13:33:49;8.40;;;2.07;;
30723;SDS011;17473;52.286;20.930;2023-05-07T13:36:16;3.03;;;1.60;;
30723;SDS011;17473;52.286;20.930;2023-05-07T13:38:43;1.67;;;1.33;;
30723;SDS011;17473;52.286;20.930;2023-05-07T13:41:11;1.53;;;1.27;;
30723;SDS011;17473;52.286;20.930;2023-05-07T13:43:39;1.53;;;1.27;;
30723;SDS011;17473;52.286;20.930;2023-05-07T13:46:06;5.73;;;1.40;;
30723;SDS011;17473;52.286;20.930;2023-05-07T13:48:33;1.40;;;1.20;;
30723;SDS011;17473;52.286;20.930;2023-05-07T13:51:00;4.40;;;1.47;;
30723;SDS011;17473;52.286;20.930;2023-05-07T13:53:27;2.27;;;1.30;;
30723;SDS011;17473;52.286;20.930;2023-05-07T13:55:54;4.90;;;1.83;;
30723;SDS011;17473;52.286;20.930;2023-05-07T13:58:21;1.30;;;1.10;;
30723;SDS011;17473;52.286;20.930;2023-05-07T14:00:48;3.93;;;1.20;;
30723;SDS011;17473;52.286;20.930;2023-05-07T14:03:16;4.33;;;1.57;;
30723;SDS011;17473;52.286;20.930;2023-05-07T14:05:44;1.47;;;0.93;;
30723;SDS011;17473;52.286;20.930;2023-05-07T14:08:14;2.23;;;1.33;;
30723;SDS011;17473;52.286;20.930;2023-05-07T14:10:41;2.43;;;1.50;;
30723;SDS011;17473;52.286;20.930;2023-05-07T14:13:08;1.83;;;1.50;;
30723;SDS011;17473;52.286;20.930;2023-05-07T14:15:35;1.92;;;1.38;;
30723;SDS011;17473;52.286;20.930;2023-05-07T14:18:03;7.47;;;1.35;;
30723;SDS011;17473;52.286;20.930;2023-05-07T14:20:30;1.50;;;1.23;;
30723;SDS011;17473;52.286;20.930;2023-05-07T14:22:57;3.40;;;1.17;;
30723;SDS011;17473;52.286;20.930;2023-05-07T14:25:24;1.83;;;1.23;;
30723;SDS011;17473;52.286;20.930;2023-05-07T14:27:51;2.27;;;1.20;;
30723;SDS011;17473;52.286;20.930;2023-05-07T14:30:18;1.13;;;1.03;;
30723;SDS011;17473;52.286;20.930;2023-05-07T14:32:45;1.63;;;1.53;;
30723;SDS011;17473;52.286;20.930;2023-05-07T14:35:13;2.20;;;1.47;;
30723;SDS011;17473;52.286;20.930;2023-05-07T14:37:40;8.77;;;1.70;;
30723;SDS011;17473;52.286;20.930;2023-05-07T14:40:07;4.50;;;1.70;;
30723;SDS011;17473;52.286;20.930;2023-05-07T14:42:35;1.30;;;1.20;;
30723;SDS011;17473;52.286;20.930;2023-05-07T14:45:03;8.60;;;1.70;;
30723;SDS011;17473;52.286;20.930;2023-05-07T14:47:30;2.43;;;1.37;;
30723;SDS011;17473;52.286;20.930;2023-05-07T14:49:57;1.87;;;1.43;;
30723;SDS011;17473;52.286;20.930;2023-05-07T14:52:27;1.70;;;1.33;;
30723;SDS011;17473;52.286;20.930;2023-05-07T14:54:54;2.97;;;1.63;;
30723;SDS011;17473;52.286;20.930;2023-05-07T14:57:21;5.83;;;1.67;;
30723;SDS011;17473;52.286;20.930;2023-05-07T14:59:48;2.00;;;1.40;;
30723;SDS011;17473;52.286;20.930;2023-05-07T15:02:15;2.77;;;1.47;;